sensor_id;sensor_type;location;lat;lon;timestamp;P1;durP1;ratioP1;P2;durP2;ratioP2
55308;SDS011;44028;51.358;19.876;2022-10-31T00:00:14;111.68;;;50.78;;
55308;SDS011;44028;51.358;19.876;2022-10-31T00:02:41;101.25;;;46.35;;
55308;SDS011;44028;51.358;19.876;2022-10-31T00:05:08;95.18;;;42.42;;
55308;SDS011;44028;51.358;19.876;2022-10-31T00:07:34;96.97;;;43.03;;
55308;SDS011;44028;51.358;19.876;2022-10-31T00:10:01;81.00;;;38.42;;
55308;SDS011;44028;51.358;19.876;2022-10-31T00:12:28;80.40;;;35.97;;
55308;SDS011;44028;51.358;19.876;2022-10-31T00:14:54;76.78;;;37.88;;
55308;SDS011;44028;51.358;19.876;2022-10-31T00:17:21;98.97;;;40.88;;
55308;SDS011;44028;51.358;19.876;2022-10-31T00:19:48;101.82;;;43.63;;
55308;SDS011;44028;51.358;19.876;2022-10-31T00:22:14;79.93;;;36.30;;
55308;SDS011;44028;51.358;19.876;2022-10-31T00:24:41;75.05;;;33.17;;
55308;SDS011;44028;51.358;19.876;2022-10-31T00:27:08;66.88;;;30.95;;
55308;SDS011;44028;51.358;19.876;2022-10-31T00:29:34;63.35;;;29.60;;
55308;SDS011;44028;51.358;19.876;2022-10-31T00:32:01;74.57;;;34.53;;
55308;SDS011;44028;51.358;19.876;2022-10-31T00:34:28;85.10;;;35.85;;
55308;SDS011;44028;51.358;19.876;2022-10-31T00:36:54;73.43;;;33.17;;
55308;SDS011;44028;51.358;19.876;2022-10-31T00:39:21;61.55;;;28.23;;
55308;SDS011;44028;51.358;19.876;2022-10-31T00:41:48;61.42;;;29.95;;
55308;SDS011;44028;51.358;19.876;2022-10-31T00:44:14;60.38;;;28.25;;
55308;SDS011;44028;51.358;19.876;2022-10-31T00:46:41;59.28;;;29.90;;
55308;SDS011;44028;51.358;19.876;2022-10-31T00:49:07;57.20;;;27.55;;
55308;SDS011;44028;51.358;19.876;2022-10-31T00:51:34;51.00;;;25.02;;
55308;SDS011;44028;51.358;19.876;2022-10-31T00:54:00;64.28;;;30.13;;
55308;SDS011;44028;51.358;19.876;2022-10-31T00:56:27;65.88;;;27.90;;
55308;SDS011;44028;51.358;19.876;2022-10-31T00:58:54;74.15;;;29.15;;
55308;SDS011;44028;51.358;19.876;2022-10-31T01:01:20;74.90;;;29.85;;
55308;SDS011;44028;51.358;19.876;2022-10-31T01:03:47;72.68;;;28.67;;
55308;SDS011;44028;51.358;19.876;2022-10-31T01:06:14;62.70;;;26.92;;
55308;SDS011;44028;51.358;19.876;2022-10-31T01:08:41;63.53;;;26.45;;
55308;SDS011;44028;51.358;19.876;2022-10-31T01:11:10;66.57;;;27.25;;
55308;SDS011;44028;51.358;19.876;2022-10-31T01:13:37;69.18;;;27.35;;
55308;SDS011;44028;51.358;19.876;2022-10-31T01:16:04;64.63;;;25.65;;
55308;SDS011;44028;51.358;19.876;2022-10-31T01:18:31;56.83;;;24.60;;
55308;SDS011;44028;51.358;19.876;2022-10-31T01:20:58;66.10;;;27.15;;
55308;SDS011;44028;51.358;19.876;2022-10-31T01:23:25;59.45;;;27.02;;
55308;SDS011;44028;51.358;19.876;2022-10-31T01:26:26;55.17;;;23.88;;
55308;SDS011;44028;51.358;19.876;2022-10-31T01:28:49;60.17;;;24.73;;
55308;SDS011;44028;51.358;19.876;2022-10-31T01:31:16;61.03;;;26.63;;
55308;SDS011;44028;51.358;19.876;2022-10-31T01:33:43;63.17;;;26.17;;
55308;SDS011;44028;51.358;19.876;2022-10-31T01:36:20;58.58;;;25.17;;
55308;SDS011;44028;51.358;19.876;2022-10-31T01:38:47;63.30;;;27.13;;
55308;SDS011;44028;51.358;19.876;2022-10-31T01:41:15;63.22;;;25.80;;
55308;SDS011;44028;51.358;19.876;2022-10-31T01:43:43;60.75;;;27.40;;
55308;SDS011;44028;51.358;19.876;2022-10-31T01:46:10;66.55;;;28.92;;
55308;SDS011;44028;51.358;19.876;2022-10-31T01:48:37;61.28;;;27.30;;
55308;SDS011;44028;51.358;19.876;2022-10-31T01:51:04;63.13;;;27.17;;
55308;SDS011;44028;51.358;19.876;2022-10-31T01:53:32;58.08;;;24.35;;
55308;SDS011;44028;51.358;19.876;2022-10-31T01:55:59;56.13;;;25.80;;
55308;SDS011;44028;51.358;19.876;2022-10-31T01:58:27;62.17;;;26.58;;
55308;SDS011;44028;51.358;19.876;2022-10-31T02:00:56;54.30;;;25.85;;
55308;SDS011;44028;51.358;19.876;2022-10-31T02:03:28;58.10;;;25.92;;
55308;SDS011;44028;51.358;19.876;2022-10-31T02:05:55;61.58;;;26.98;;
55308;SDS011;44028;51.358;19.876;2022-10-31T02:08:26;67.60;;;28.08;;
55308;SDS011;44028;51.358;19.876;2022-10-31T02:10:54;68.15;;;28.23;;
55308;SDS011;44028;51.358;19.876;2022-10-31T02:13:21;67.00;;;27.20;;
55308;SDS011;44028;51.358;19.876;2022-10-31T02:15:52;63.72;;;27.30;;
55308;SDS011;44028;51.358;19.876;2022-10-31T02:18:19;58.65;;;24.95;;
55308;SDS011;44028;51.358;19.876;2022-10-31T02:34:06;50.70;;;22.75;;
55308;SDS011;44028;51.358;19.876;2022-10-31T02:49:27;47.05;;;22.25;;
55308;SDS011;44028;51.358;19.876;2022-10-31T02:51:54;46.80;;;22.08;;
55308;SDS011;44028;51.358;19.876;2022-10-31T02:54:24;41.17;;;21.23;;
55308;SDS011;44028;51.358;19.876;2022-10-31T02:56:57;43.15;;;21.30;;
55308;SDS011;44028;51.358;19.876;2022-10-31T02:59:25;41.03;;;20.42;;
55308;SDS011;44028;51.358;19.876;2022-10-31T03:01:58;45.50;;;20.92;;
55308;SDS011;44028;51.358;19.876;2022-10-31T03:12:16;40.88;;;20.05;;
55308;SDS011;44028;51.358;19.876;2022-10-31T03:14:48;41.63;;;19.95;;
55308;SDS011;44028;51.358;19.876;2022-10-31T03:17:27;35.65;;;17.17;;
55308;SDS011;44028;51.358;19.876;2022-10-31T03:19:54;36.33;;;18.38;;
55308;SDS011;44028;51.358;19.876;2022-10-31T03:22:23;37.00;;;18.00;;
55308;SDS011;44028;51.358;19.876;2022-10-31T03:24:51;33.95;;;17.50;;
55308;SDS011;44028;51.358;19.876;2022-10-31T03:27:20;37.35;;;18.58;;
55308;SDS011;44028;51.358;19.876;2022-10-31T03:29:48;34.42;;;16.85;;
55308;SDS011;44028;51.358;19.876;2022-10-31T03:32:16;37.03;;;18.10;;
55308;SDS011;44028;51.358;19.876;2022-10-31T03:34:44;30.02;;;16.27;;
55308;SDS011;44028;51.358;19.876;2022-10-31T03:37:13;34.00;;;16.48;;
55308;SDS011;44028;51.358;19.876;2022-10-31T03:39:41;31.52;;;15.93;;
55308;SDS011;44028;51.358;19.876;2022-10-31T03:42:14;32.47;;;17.40;;
55308;SDS011;44028;51.358;19.876;2022-10-31T03:44:42;29.40;;;14.60;;
55308;SDS011;44028;51.358;19.876;2022-10-31T03:47:10;31.10;;;15.55;;
55308;SDS011;44028;51.358;19.876;2022-10-31T03:49:37;29.10;;;15.00;;
55308;SDS011;44028;51.358;19.876;2022-10-31T03:54:45;30.73;;;15.82;;
55308;SDS011;44028;51.358;19.876;2022-10-31T04:00:04;32.92;;;15.93;;
55308;SDS011;44028;51.358;19.876;2022-10-31T04:02:32;38.85;;;16.77;;
55308;SDS011;44028;51.358;19.876;2022-10-31T04:05:00;31.23;;;16.60;;
55308;SDS011;44028;51.358;19.876;2022-10-31T04:07:28;36.83;;;17.77;;
55308;SDS011;44028;51.358;19.876;2022-10-31T04:09:56;32.88;;;16.52;;
55308;SDS011;44028;51.358;19.876;2022-10-31T04:12:23;30.63;;;16.65;;
55308;SDS011;44028;51.358;19.876;2022-10-31T04:14:51;29.17;;;15.48;;
55308;SDS011;44028;51.358;19.876;2022-10-31T04:17:19;30.30;;;16.58;;
55308;SDS011;44028;51.358;19.876;2022-10-31T04:19:47;29.98;;;16.20;;
55308;SDS011;44028;51.358;19.876;2022-10-31T04:22:13;28.20;;;15.82;;
55308;SDS011;44028;51.358;19.876;2022-10-31T04:24:40;30.27;;;15.48;;
55308;SDS011;44028;51.358;19.876;2022-10-31T04:27:07;27.92;;;15.05;;
55308;SDS011;44028;51.358;19.876;2022-10-31T04:29:34;31.17;;;16.45;;
55308;SDS011;44028;51.358;19.876;2022-10-31T04:32:00;29.92;;;16.08;;
55308;SDS011;44028;51.358;19.876;2022-10-31T04:34:27;30.27;;;16.13;;
55308;SDS011;44028;51.358;19.876;2022-10-31T04:36:53;30.80;;;16.48;;
55308;SDS011;44028;51.358;19.876;2022-10-31T04:39:20;31.63;;;16.05;;
55308;SDS011;44028;51.358;19.876;2022-10-31T04:41:52;32.70;;;16.52;;
55308;SDS011;44028;51.358;19.876;2022-10-31T04:44:18;34.63;;;17.70;;
55308;SDS011;44028;51.358;19.876;2022-10-31T04:46:45;33.63;;;16.83;;
55308;SDS011;44028;51.358;19.876;2022-10-31T04:49:12;28.48;;;15.55;;
55308;SDS011;44028;51.358;19.876;2022-10-31T04:51:38;29.08;;;16.17;;
55308;SDS011;44028;51.358;19.876;2022-10-31T04:54:05;31.40;;;16.38;;
55308;SDS011;44028;51.358;19.876;2022-10-31T04:56:32;29.70;;;16.85;;
55308;SDS011;44028;51.358;19.876;2022-10-31T04:58:58;38.90;;;18.80;;
55308;SDS011;44028;51.358;19.876;2022-10-31T05:01:25;36.03;;;17.80;;
55308;SDS011;44028;51.358;19.876;2022-10-31T05:03:52;34.72;;;18.17;;
55308;SDS011;44028;51.358;19.876;2022-10-31T05:06:19;33.72;;;18.27;;
55308;SDS011;44028;51.358;19.876;2022-10-31T05:08:46;32.78;;;16.67;;
55308;SDS011;44028;51.358;19.876;2022-10-31T05:11:12;36.17;;;17.38;;
55308;SDS011;44028;51.358;19.876;2022-10-31T05:13:39;35.45;;;17.52;;
55308;SDS011;44028;51.358;19.876;2022-10-31T05:16:06;30.48;;;16.60;;
55308;SDS011;44028;51.358;19.876;2022-10-31T05:18:33;31.58;;;17.33;;
55308;SDS011;44028;51.358;19.876;2022-10-31T05:21:01;34.15;;;16.13;;
55308;SDS011;44028;51.358;19.876;2022-10-31T05:23:29;31.60;;;17.00;;
55308;SDS011;44028;51.358;19.876;2022-10-31T05:25:57;34.47;;;17.13;;
55308;SDS011;44028;51.358;19.876;2022-10-31T05:28:23;33.50;;;17.02;;
55308;SDS011;44028;51.358;19.876;2022-10-31T05:30:50;38.25;;;18.67;;
55308;SDS011;44028;51.358;19.876;2022-10-31T05:33:17;33.55;;;18.35;;
55308;SDS011;44028;51.358;19.876;2022-10-31T05:35:44;40.97;;;19.20;;
55308;SDS011;44028;51.358;19.876;2022-10-31T05:38:10;43.25;;;18.52;;
55308;SDS011;44028;51.358;19.876;2022-10-31T05:40:37;34.83;;;17.70;;
55308;SDS011;44028;51.358;19.876;2022-10-31T05:43:04;35.72;;;17.05;;
55308;SDS011;44028;51.358;19.876;2022-10-31T05:45:31;38.90;;;18.60;;
55308;SDS011;44028;51.358;19.876;2022-10-31T05:47:58;34.33;;;18.50;;
55308;SDS011;44028;51.358;19.876;2022-10-31T05:50:27;38.55;;;18.60;;
55308;SDS011;44028;51.358;19.876;2022-10-31T05:53:03;36.45;;;17.58;;
55308;SDS011;44028;51.358;19.876;2022-10-31T05:55:31;35.47;;;17.70;;
55308;SDS011;44028;51.358;19.876;2022-10-31T05:57:58;36.42;;;19.52;;
55308;SDS011;44028;51.358;19.876;2022-10-31T06:00:26;37.15;;;20.23;;
55308;SDS011;44028;51.358;19.876;2022-10-31T06:02:59;50.80;;;23.63;;
55308;SDS011;44028;51.358;19.876;2022-10-31T06:05:26;44.88;;;21.65;;
55308;SDS011;44028;51.358;19.876;2022-10-31T06:07:53;39.97;;;19.90;;
55308;SDS011;44028;51.358;19.876;2022-10-31T06:10:20;35.20;;;19.73;;
55308;SDS011;44028;51.358;19.876;2022-10-31T06:12:47;38.50;;;19.27;;
55308;SDS011;44028;51.358;19.876;2022-10-31T06:15:14;36.03;;;18.40;;
55308;SDS011;44028;51.358;19.876;2022-10-31T06:17:56;41.75;;;21.48;;
55308;SDS011;44028;51.358;19.876;2022-10-31T06:20:24;44.20;;;21.17;;
55308;SDS011;44028;51.358;19.876;2022-10-31T06:22:51;37.05;;;18.23;;
55308;SDS011;44028;51.358;19.876;2022-10-31T06:25:17;37.33;;;18.23;;
55308;SDS011;44028;51.358;19.876;2022-10-31T06:27:44;37.92;;;19.10;;
55308;SDS011;44028;51.358;19.876;2022-10-31T06:30:11;38.10;;;19.33;;
55308;SDS011;44028;51.358;19.876;2022-10-31T06:32:38;32.15;;;17.63;;
55308;SDS011;44028;51.358;19.876;2022-10-31T06:35:05;40.08;;;18.92;;
55308;SDS011;44028;51.358;19.876;2022-10-31T06:37:31;29.70;;;16.52;;
55308;SDS011;44028;51.358;19.876;2022-10-31T06:39:58;35.42;;;17.00;;
55308;SDS011;44028;51.358;19.876;2022-10-31T06:42:24;32.83;;;17.92;;
55308;SDS011;44028;51.358;19.876;2022-10-31T06:44:51;34.85;;;19.35;;
55308;SDS011;44028;51.358;19.876;2022-10-31T06:47:19;32.65;;;18.15;;
55308;SDS011;44028;51.358;19.876;2022-10-31T06:49:46;37.28;;;19.48;;
55308;SDS011;44028;51.358;19.876;2022-10-31T06:52:13;34.35;;;18.90;;
55308;SDS011;44028;51.358;19.876;2022-10-31T06:54:39;31.40;;;17.13;;
55308;SDS011;44028;51.358;19.876;2022-10-31T06:57:06;28.58;;;16.17;;
55308;SDS011;44028;51.358;19.876;2022-10-31T06:59:33;30.58;;;16.17;;
55308;SDS011;44028;51.358;19.876;2022-10-31T07:01:59;32.42;;;16.63;;
55308;SDS011;44028;51.358;19.876;2022-10-31T07:04:28;32.33;;;18.20;;
55308;SDS011;44028;51.358;19.876;2022-10-31T07:06:55;31.63;;;17.33;;
55308;SDS011;44028;51.358;19.876;2022-10-31T07:09:21;34.70;;;18.90;;
55308;SDS011;44028;51.358;19.876;2022-10-31T07:11:50;38.80;;;18.08;;
55308;SDS011;44028;51.358;19.876;2022-10-31T07:14:18;34.08;;;18.38;;
55308;SDS011;44028;51.358;19.876;2022-10-31T07:16:47;32.25;;;18.05;;
55308;SDS011;44028;51.358;19.876;2022-10-31T07:19:14;37.42;;;19.75;;
55308;SDS011;44028;51.358;19.876;2022-10-31T07:21:41;32.25;;;18.05;;
55308;SDS011;44028;51.358;19.876;2022-10-31T07:24:08;36.65;;;19.05;;
55308;SDS011;44028;51.358;19.876;2022-10-31T07:26:34;38.50;;;20.00;;
55308;SDS011;44028;51.358;19.876;2022-10-31T07:29:01;42.38;;;20.90;;
55308;SDS011;44028;51.358;19.876;2022-10-31T07:31:27;42.25;;;22.30;;
55308;SDS011;44028;51.358;19.876;2022-10-31T07:33:54;40.70;;;19.95;;
55308;SDS011;44028;51.358;19.876;2022-10-31T07:36:21;39.25;;;20.10;;
55308;SDS011;44028;51.358;19.876;2022-10-31T07:38:48;34.70;;;19.17;;
55308;SDS011;44028;51.358;19.876;2022-10-31T07:41:14;38.58;;;20.30;;
55308;SDS011;44028;51.358;19.876;2022-10-31T07:43:41;37.80;;;19.33;;
55308;SDS011;44028;51.358;19.876;2022-10-31T07:46:08;48.58;;;26.13;;
55308;SDS011;44028;51.358;19.876;2022-10-31T07:48:35;96.07;;;51.78;;
55308;SDS011;44028;51.358;19.876;2022-10-31T07:51:03;54.17;;;29.02;;
55308;SDS011;44028;51.358;19.876;2022-10-31T07:53:30;47.47;;;23.95;;
55308;SDS011;44028;51.358;19.876;2022-10-31T07:55:57;46.17;;;24.40;;
55308;SDS011;44028;51.358;19.876;2022-10-31T07:58:23;101.57;;;51.90;;
55308;SDS011;44028;51.358;19.876;2022-10-31T08:00:51;56.20;;;30.67;;
55308;SDS011;44028;51.358;19.876;2022-10-31T08:03:19;314.90;;;116.93;;
55308;SDS011;44028;51.358;19.876;2022-10-31T08:05:46;50.75;;;25.25;;
55308;SDS011;44028;51.358;19.876;2022-10-31T08:08:13;47.85;;;23.70;;
55308;SDS011;44028;51.358;19.876;2022-10-31T08:10:41;50.28;;;24.30;;
55308;SDS011;44028;51.358;19.876;2022-10-31T08:13:08;198.05;;;63.45;;
55308;SDS011;44028;51.358;19.876;2022-10-31T08:15:35;134.90;;;50.00;;
55308;SDS011;44028;51.358;19.876;2022-10-31T08:18:05;101.60;;;39.40;;
55308;SDS011;44028;51.358;19.876;2022-10-31T08:20:32;58.95;;;28.98;;
55308;SDS011;44028;51.358;19.876;2022-10-31T08:22:59;64.47;;;30.05;;
55308;SDS011;44028;51.358;19.876;2022-10-31T08:25:29;58.75;;;28.30;;
55308;SDS011;44028;51.358;19.876;2022-10-31T08:28:03;60.80;;;28.27;;
55308;SDS011;44028;51.358;19.876;2022-10-31T08:30:31;51.20;;;27.17;;
55308;SDS011;44028;51.358;19.876;2022-10-31T08:33:02;66.55;;;31.55;;
55308;SDS011;44028;51.358;19.876;2022-10-31T08:35:29;62.72;;;31.48;;
55308;SDS011;44028;51.358;19.876;2022-10-31T08:37:56;59.03;;;31.08;;
55308;SDS011;44028;51.358;19.876;2022-10-31T08:40:24;51.03;;;27.45;;
55308;SDS011;44028;51.358;19.876;2022-10-31T08:45:25;65.65;;;32.60;;
55308;SDS011;44028;51.358;19.876;2022-10-31T08:48:01;46.65;;;25.65;;
55308;SDS011;44028;51.358;19.876;2022-10-31T08:51:06;48.05;;;25.08;;
55308;SDS011;44028;51.358;19.876;2022-10-31T08:54:20;48.90;;;25.08;;
55308;SDS011;44028;51.358;19.876;2022-10-31T08:57:26;37.22;;;21.30;;
55308;SDS011;44028;51.358;19.876;2022-10-31T09:00:33;40.15;;;21.27;;
55308;SDS011;44028;51.358;19.876;2022-10-31T09:03:03;42.60;;;23.48;;
55308;SDS011;44028;51.358;19.876;2022-10-31T09:05:30;38.10;;;22.05;;
55308;SDS011;44028;51.358;19.876;2022-10-31T09:07:58;38.88;;;21.92;;
55308;SDS011;44028;51.358;19.876;2022-10-31T09:10:26;34.22;;;20.77;;
55308;SDS011;44028;51.358;19.876;2022-10-31T09:12:56;38.92;;;21.50;;
55308;SDS011;44028;51.358;19.876;2022-10-31T09:15:24;37.45;;;21.60;;
55308;SDS011;44028;51.358;19.876;2022-10-31T09:17:51;35.35;;;20.98;;
55308;SDS011;44028;51.358;19.876;2022-10-31T09:20:17;34.78;;;20.30;;
55308;SDS011;44028;51.358;19.876;2022-10-31T09:22:44;32.17;;;20.33;;
55308;SDS011;44028;51.358;19.876;2022-10-31T09:25:11;31.95;;;20.80;;
55308;SDS011;44028;51.358;19.876;2022-10-31T09:27:38;33.00;;;20.50;;
55308;SDS011;44028;51.358;19.876;2022-10-31T09:30:04;32.22;;;20.00;;
55308;SDS011;44028;51.358;19.876;2022-10-31T09:32:31;35.55;;;20.92;;
55308;SDS011;44028;51.358;19.876;2022-10-31T09:34:58;42.10;;;25.08;;
55308;SDS011;44028;51.358;19.876;2022-10-31T09:37:25;36.00;;;21.33;;
55308;SDS011;44028;51.358;19.876;2022-10-31T09:39:51;33.22;;;21.33;;
55308;SDS011;44028;51.358;19.876;2022-10-31T09:52:48;28.83;;;19.52;;
55308;SDS011;44028;51.358;19.876;2022-10-31T09:55:19;31.48;;;20.00;;
55308;SDS011;44028;51.358;19.876;2022-10-31T09:57:47;37.67;;;22.23;;
55308;SDS011;44028;51.358;19.876;2022-10-31T10:00:15;31.02;;;19.20;;
55308;SDS011;44028;51.358;19.876;2022-10-31T10:02:51;38.00;;;20.50;;
55308;SDS011;44028;51.358;19.876;2022-10-31T10:05:21;30.55;;;18.98;;
55308;SDS011;44028;51.358;19.876;2022-10-31T10:07:57;34.72;;;20.70;;
55308;SDS011;44028;51.358;19.876;2022-10-31T10:13:13;28.77;;;19.77;;
55308;SDS011;44028;51.358;19.876;2022-10-31T10:25:52;29.73;;;18.98;;
55308;SDS011;44028;51.358;19.876;2022-10-31T10:28:25;28.75;;;19.48;;
55308;SDS011;44028;51.358;19.876;2022-10-31T10:33:24;34.47;;;20.85;;
55308;SDS011;44028;51.358;19.876;2022-10-31T10:36:01;30.95;;;20.00;;
55308;SDS011;44028;51.358;19.876;2022-10-31T10:38:33;29.45;;;18.65;;
55308;SDS011;44028;51.358;19.876;2022-10-31T10:41:02;30.67;;;18.00;;
55308;SDS011;44028;51.358;19.876;2022-10-31T10:43:33;29.75;;;19.90;;
55308;SDS011;44028;51.358;19.876;2022-10-31T10:51:22;25.35;;;16.98;;
55308;SDS011;44028;51.358;19.876;2022-10-31T10:59:11;30.90;;;19.63;;
55308;SDS011;44028;51.358;19.876;2022-10-31T11:01:39;26.17;;;17.02;;
55308;SDS011;44028;51.358;19.876;2022-10-31T11:04:14;29.90;;;18.52;;
55308;SDS011;44028;51.358;19.876;2022-10-31T11:06:45;27.27;;;17.45;;
55308;SDS011;44028;51.358;19.876;2022-10-31T11:09:22;27.42;;;17.10;;
55308;SDS011;44028;51.358;19.876;2022-10-31T11:11:49;30.17;;;17.73;;
55308;SDS011;44028;51.358;19.876;2022-10-31T11:14:15;27.23;;;17.25;;
55308;SDS011;44028;51.358;19.876;2022-10-31T11:16:48;27.35;;;16.08;;
55308;SDS011;44028;51.358;19.876;2022-10-31T11:19:16;25.40;;;16.63;;
55308;SDS011;44028;51.358;19.876;2022-10-31T11:21:43;26.48;;;16.30;;
55308;SDS011;44028;51.358;19.876;2022-10-31T11:24:25;28.20;;;16.63;;
55308;SDS011;44028;51.358;19.876;2022-10-31T11:27:02;25.83;;;16.88;;
55308;SDS011;44028;51.358;19.876;2022-10-31T11:29:29;28.75;;;16.48;;
55308;SDS011;44028;51.358;19.876;2022-10-31T11:31:56;28.08;;;16.52;;
55308;SDS011;44028;51.358;19.876;2022-10-31T11:37:15;30.23;;;16.52;;
55308;SDS011;44028;51.358;19.876;2022-10-31T11:39:44;28.58;;;17.20;;
55308;SDS011;44028;51.358;19.876;2022-10-31T11:42:11;30.42;;;16.63;;
55308;SDS011;44028;51.358;19.876;2022-10-31T11:44:40;26.00;;;15.88;;
55308;SDS011;44028;51.358;19.876;2022-10-31T11:47:10;28.15;;;16.92;;
55308;SDS011;44028;51.358;19.876;2022-10-31T11:49:39;26.13;;;16.55;;
55308;SDS011;44028;51.358;19.876;2022-10-31T11:52:07;27.48;;;16.17;;
55308;SDS011;44028;51.358;19.876;2022-10-31T11:59:57;28.60;;;16.45;;
55308;SDS011;44028;51.358;19.876;2022-10-31T12:02:24;28.23;;;16.48;;
55308;SDS011;44028;51.358;19.876;2022-10-31T12:05:17;30.15;;;16.58;;
55308;SDS011;44028;51.358;19.876;2022-10-31T12:07:38;29.00;;;16.38;;
55308;SDS011;44028;51.358;19.876;2022-10-31T12:10:09;30.60;;;15.52;;
55308;SDS011;44028;51.358;19.876;2022-10-31T12:15:07;26.17;;;14.88;;
55308;SDS011;44028;51.358;19.876;2022-10-31T12:23:24;27.60;;;16.73;;
55308;SDS011;44028;51.358;19.876;2022-10-31T12:26:23;26.10;;;15.63;;
55308;SDS011;44028;51.358;19.876;2022-10-31T12:44:42;24.85;;;13.73;;
55308;SDS011;44028;51.358;19.876;2022-10-31T12:52:32;27.10;;;14.70;;
55308;SDS011;44028;51.358;19.876;2022-10-31T12:57:44;27.48;;;17.25;;
55308;SDS011;44028;51.358;19.876;2022-10-31T13:02:39;28.10;;;14.77;;
55308;SDS011;44028;51.358;19.876;2022-10-31T13:05:14;27.05;;;13.60;;
55308;SDS011;44028;51.358;19.876;2022-10-31T13:07:44;28.27;;;14.05;;
55308;SDS011;44028;51.358;19.876;2022-10-31T13:12:39;24.35;;;12.95;;
55308;SDS011;44028;51.358;19.876;2022-10-31T13:15:18;24.65;;;13.63;;
55308;SDS011;44028;51.358;19.876;2022-10-31T13:17:46;25.67;;;13.85;;
55308;SDS011;44028;51.358;19.876;2022-10-31T13:23:04;25.90;;;15.38;;
55308;SDS011;44028;51.358;19.876;2022-10-31T13:25:49;32.53;;;17.17;;
55308;SDS011;44028;51.358;19.876;2022-10-31T13:30:58;25.88;;;15.80;;
55308;SDS011;44028;51.358;19.876;2022-10-31T13:33:28;29.67;;;17.08;;
55308;SDS011;44028;51.358;19.876;2022-10-31T13:36:41;29.08;;;16.80;;
55308;SDS011;44028;51.358;19.876;2022-10-31T13:39:29;29.52;;;17.48;;
55308;SDS011;44028;51.358;19.876;2022-10-31T13:45:16;28.73;;;16.45;;
55308;SDS011;44028;51.358;19.876;2022-10-31T13:51:27;28.83;;;15.85;;
55308;SDS011;44028;51.358;19.876;2022-10-31T13:54:36;27.63;;;17.33;;
55308;SDS011;44028;51.358;19.876;2022-10-31T14:00:25;30.33;;;18.42;;
55308;SDS011;44028;51.358;19.876;2022-10-31T14:03:16;29.05;;;18.50;;
55308;SDS011;44028;51.358;19.876;2022-10-31T14:07:12;32.25;;;18.08;;
55308;SDS011;44028;51.358;19.876;2022-10-31T14:11:55;35.40;;;20.55;;
55308;SDS011;44028;51.358;19.876;2022-10-31T14:14:29;40.40;;;23.00;;
55308;SDS011;44028;51.358;19.876;2022-10-31T14:17:03;42.42;;;22.88;;
55308;SDS011;44028;51.358;19.876;2022-10-31T14:19:34;39.25;;;23.38;;
55308;SDS011;44028;51.358;19.876;2022-10-31T14:22:03;38.25;;;22.58;;
55308;SDS011;44028;51.358;19.876;2022-10-31T14:24:33;42.58;;;23.15;;
55308;SDS011;44028;51.358;19.876;2022-10-31T14:27:32;39.15;;;22.40;;
55308;SDS011;44028;51.358;19.876;2022-10-31T14:29:52;42.60;;;23.70;;
55308;SDS011;44028;51.358;19.876;2022-10-31T14:32:22;43.20;;;23.83;;
55308;SDS011;44028;51.358;19.876;2022-10-31T14:52:43;56.20;;;30.92;;
55308;SDS011;44028;51.358;19.876;2022-10-31T14:55:12;57.38;;;31.38;;
55308;SDS011;44028;51.358;19.876;2022-10-31T14:57:43;62.35;;;36.25;;
55308;SDS011;44028;51.358;19.876;2022-10-31T15:00:15;54.30;;;29.80;;
55308;SDS011;44028;51.358;19.876;2022-10-31T15:05:25;49.35;;;28.42;;
55308;SDS011;44028;51.358;19.876;2022-10-31T15:07:54;52.13;;;28.15;;
55308;SDS011;44028;51.358;19.876;2022-10-31T15:10:23;56.33;;;29.67;;
55308;SDS011;44028;51.358;19.876;2022-10-31T15:12:51;58.30;;;31.10;;
55308;SDS011;44028;51.358;19.876;2022-10-31T15:15:19;59.63;;;32.13;;
55308;SDS011;44028;51.358;19.876;2022-10-31T15:17:56;66.22;;;33.00;;
55308;SDS011;44028;51.358;19.876;2022-10-31T15:20:28;68.60;;;31.80;;
55308;SDS011;44028;51.358;19.876;2022-10-31T15:22:56;64.00;;;31.17;;
55308;SDS011;44028;51.358;19.876;2022-10-31T15:25:24;67.30;;;33.13;;
55308;SDS011;44028;51.358;19.876;2022-10-31T15:27:52;63.58;;;31.77;;
55308;SDS011;44028;51.358;19.876;2022-10-31T15:30:22;70.93;;;35.05;;
55308;SDS011;44028;51.358;19.876;2022-10-31T15:32:50;69.97;;;35.05;;
55308;SDS011;44028;51.358;19.876;2022-10-31T15:35:28;96.13;;;43.67;;
55308;SDS011;44028;51.358;19.876;2022-10-31T15:37:56;95.20;;;44.10;;
55308;SDS011;44028;51.358;19.876;2022-10-31T15:40:24;85.00;;;38.78;;
55308;SDS011;44028;51.358;19.876;2022-10-31T15:45:24;80.57;;;38.03;;
55308;SDS011;44028;51.358;19.876;2022-10-31T15:48:16;90.93;;;39.65;;
55308;SDS011;44028;51.358;19.876;2022-10-31T15:50:46;82.07;;;37.70;;
55308;SDS011;44028;51.358;19.876;2022-10-31T15:53:16;94.35;;;42.15;;
55308;SDS011;44028;51.358;19.876;2022-10-31T15:55:53;90.05;;;41.90;;
55308;SDS011;44028;51.358;19.876;2022-10-31T15:58:22;87.95;;;40.15;;
55308;SDS011;44028;51.358;19.876;2022-10-31T16:03:31;77.07;;;36.83;;
55308;SDS011;44028;51.358;19.876;2022-10-31T16:05:59;64.20;;;31.48;;
55308;SDS011;44028;51.358;19.876;2022-10-31T16:13:26;49.78;;;26.92;;
55308;SDS011;44028;51.358;19.876;2022-10-31T16:15:58;106.82;;;41.05;;
55308;SDS011;44028;51.358;19.876;2022-10-31T16:18:45;319.38;;;88.85;;
55308;SDS011;44028;51.358;19.876;2022-10-31T16:21:12;260.33;;;79.28;;
55308;SDS011;44028;51.358;19.876;2022-10-31T16:23:46;178.95;;;65.32;;
55308;SDS011;44028;51.358;19.876;2022-10-31T16:26:15;312.83;;;97.43;;
55308;SDS011;44028;51.358;19.876;2022-10-31T16:28:51;226.55;;;84.63;;
55308;SDS011;44028;51.358;19.876;2022-10-31T16:31:30;140.32;;;58.75;;
55308;SDS011;44028;51.358;19.876;2022-10-31T16:36:38;323.15;;;97.75;;
55308;SDS011;44028;51.358;19.876;2022-10-31T16:39:06;329.67;;;98.78;;
55308;SDS011;44028;51.358;19.876;2022-10-31T16:41:42;214.00;;;77.20;;
55308;SDS011;44028;51.358;19.876;2022-10-31T16:46:45;150.48;;;58.55;;
55308;SDS011;44028;51.358;19.876;2022-10-31T16:49:12;257.45;;;86.22;;
55308;SDS011;44028;51.358;19.876;2022-10-31T16:51:39;270.15;;;91.15;;
55308;SDS011;44028;51.358;19.876;2022-10-31T16:54:05;128.63;;;50.45;;
55308;SDS011;44028;51.358;19.876;2022-10-31T16:56:33;119.18;;;46.67;;
55308;SDS011;44028;51.358;19.876;2022-10-31T16:59:01;102.95;;;40.33;;
55308;SDS011;44028;51.358;19.876;2022-10-31T17:01:40;231.48;;;66.35;;
55308;SDS011;44028;51.358;19.876;2022-10-31T17:04:14;163.77;;;59.78;;
55308;SDS011;44028;51.358;19.876;2022-10-31T17:06:47;78.70;;;37.50;;
55308;SDS011;44028;51.358;19.876;2022-10-31T17:09:19;77.18;;;37.40;;
55308;SDS011;44028;51.358;19.876;2022-10-31T17:11:58;78.47;;;40.67;;
55308;SDS011;44028;51.358;19.876;2022-10-31T17:14:46;77.57;;;38.67;;
55308;SDS011;44028;51.358;19.876;2022-10-31T17:17:30;103.57;;;51.67;;
55308;SDS011;44028;51.358;19.876;2022-10-31T17:20:01;82.93;;;39.13;;
55308;SDS011;44028;51.358;19.876;2022-10-31T17:22:34;83.70;;;39.67;;